createdAt,value
2022-11-15T00:00:57.050Z,44.90
2022-11-15T00:03:26.008Z,47.20
2022-11-15T00:05:52.784Z,42.90
2022-11-15T00:08:19.759Z,43.30
2022-11-15T00:11:00.351Z,44.07
2022-11-15T00:13:27.665Z,44.90
2022-11-15T00:15:58.419Z,45.93
2022-11-15T00:18:25.123Z,46.00
2022-11-15T00:20:51.872Z,47.40
2022-11-15T00:23:18.714Z,50.50
2022-11-15T00:25:45.423Z,46.83
2022-11-15T00:28:12.365Z,55.13
2022-11-15T00:30:39.039Z,47.20
2022-11-15T00:33:06.415Z,55.40
2022-11-15T00:35:34.581Z,51.73
2022-11-15T00:38:02.299Z,49.83
2022-11-15T00:40:29.449Z,58.87
2022-11-15T00:42:56.337Z,59.50
2022-11-15T00:45:23.422Z,58.90
2022-11-15T00:47:50.228Z,67.20
2022-11-15T00:50:17.433Z,62.90
2022-11-15T00:52:44.219Z,61.77
2022-11-15T00:55:16.324Z,73.63
2022-11-15T00:57:43.120Z,71.30
2022-11-15T01:00:10.499Z,76.53
2022-11-15T01:02:37.218Z,62.43
2022-11-15T01:05:04.544Z,74.63
2022-11-15T01:07:31.313Z,67.93
2022-11-15T01:09:58.032Z,71.13
2022-11-15T01:12:24.769Z,74.47
2022-11-15T01:14:51.466Z,71.20
2022-11-15T01:17:18.229Z,84.63
2022-11-15T01:19:44.937Z,70.33
2022-11-15T01:22:11.720Z,72.03
2022-11-15T01:24:38.481Z,75.33
2022-11-15T01:27:05.361Z,74.10
2022-11-15T01:29:32.122Z,79.50
2022-11-15T01:31:58.824Z,74.73
2022-11-15T01:34:25.633Z,78.97
2022-11-15T01:36:52.401Z,74.47
2022-11-15T01:39:19.238Z,75.33
2022-11-15T01:41:46.031Z,73.23
2022-11-15T01:44:34.336Z,72.47
2022-11-15T01:47:23.609Z,78.50
2022-11-15T01:49:56.078Z,71.37
2022-11-15T01:52:26.435Z,80.60
2022-11-15T01:55:08.825Z,77.37
2022-11-15T01:57:36.023Z,74.70
2022-11-15T02:00:05.556Z,75.97
2022-11-15T02:02:34.036Z,74.23
2022-11-15T02:05:00.998Z,81.00
2022-11-15T02:07:29.350Z,70.97
2022-11-15T02:09:58.681Z,78.53
2022-11-15T02:12:25.451Z,76.13
2022-11-15T02:14:55.642Z,76.30
2022-11-15T02:17:31.301Z,79.80
2022-11-15T02:20:16.159Z,80.43
2022-11-15T02:23:21.391Z,84.57
2022-11-15T02:26:22.127Z,80.70
2022-11-15T02:29:00.955Z,74.60
2022-11-15T02:31:37.043Z,82.13
2022-11-15T02:34:17.935Z,72.80
2022-11-15T02:37:26.351Z,71.23
2022-11-15T02:40:08.003Z,82.60
2022-11-15T02:43:03.086Z,78.67
2022-11-15T02:45:41.941Z,84.23
2022-11-15T02:48:10.332Z,75.77
2022-11-15T02:50:37.200Z,80.03
2022-11-15T02:53:04.923Z,78.60
2022-11-15T02:55:37.455Z,79.80
2022-11-15T02:58:16.182Z,80.27
2022-11-15T03:01:18.657Z,82.37
2022-11-15T03:03:58.048Z,87.13
2022-11-15T03:06:36.212Z,81.03
2022-11-15T03:09:27.105Z,83.50
2022-11-15T03:12:02.217Z,87.00
2022-11-15T03:14:42.139Z,82.57
2022-11-15T03:17:36.922Z,81.57
2022-11-15T03:20:06.847Z,81.73
2022-11-15T03:22:43.917Z,73.77
2022-11-15T03:25:16.396Z,82.93
2022-11-15T03:27:50.656Z,77.30
2022-11-15T03:30:19.042Z,80.93
2022-11-15T03:32:50.600Z,72.60
2022-11-15T03:35:22.857Z,79.83
2022-11-15T03:38:16.964Z,77.97
2022-11-15T03:41:06.286Z,75.23
2022-11-15T03:43:55.467Z,74.53
2022-11-15T03:46:28.760Z,79.20
2022-11-15T03:49:05.422Z,76.07
2022-11-15T03:51:32.304Z,74.40
2022-11-15T03:53:59.010Z,75.07
2022-11-15T03:56:25.718Z,80.53
2022-11-15T03:58:52.528Z,75.63
2022-11-15T04:01:19.271Z,74.93
2022-11-15T04:03:46.296Z,72.27
2022-11-15T04:06:13.006Z,76.40
2022-11-15T04:08:39.689Z,74.10
2022-11-15T04:11:06.407Z,75.87
2022-11-15T04:13:33.471Z,75.77
2022-11-15T04:16:00.383Z,73.50
2022-11-15T04:18:27.143Z,74.57
2022-11-15T04:21:12.523Z,81.97
2022-11-15T04:24:05.755Z,74.83
2022-11-15T04:26:32.870Z,78.37
2022-11-15T04:29:18.392Z,77.10
2022-11-15T04:31:45.158Z,81.67
2022-11-15T04:34:11.880Z,77.73
2022-11-15T04:36:57.487Z,83.67
2022-11-15T04:39:24.605Z,75.83
2022-11-15T04:41:51.375Z,75.90
2022-11-15T04:44:18.052Z,70.77
2022-11-15T04:46:44.726Z,78.83
2022-11-15T04:49:11.429Z,81.20
2022-11-15T04:51:38.371Z,80.20
2022-11-15T04:54:05.230Z,72.07
2022-11-15T04:56:32.007Z,77.57
2022-11-15T04:58:58.829Z,82.93
2022-11-15T05:01:25.606Z,84.10
2022-11-15T05:04:11.021Z,72.80
2022-11-15T05:06:37.805Z,78.80
2022-11-15T05:09:04.899Z,78.37
2022-11-15T05:11:31.672Z,74.97
2022-11-15T05:14:01.449Z,76.17
2022-11-15T05:16:28.214Z,75.43
2022-11-15T05:18:55.675Z,73.57
2022-11-15T05:21:23.416Z,72.80
2022-11-15T05:23:50.254Z,72.93
2022-11-15T05:26:18.700Z,73.20
2022-11-15T05:28:45.689Z,82.53
2022-11-15T05:31:14.807Z,75.73
2022-11-15T05:33:42.300Z,80.40
2022-11-15T05:36:12.515Z,78.57
2022-11-15T05:38:39.439Z,67.40
2022-11-15T05:41:06.920Z,74.30
2022-11-15T05:43:37.281Z,73.20
2022-11-15T05:46:05.455Z,70.43
2022-11-15T05:48:33.557Z,62.80
2022-11-15T05:51:00.754Z,72.80
2022-11-15T05:53:27.875Z,67.97
2022-11-15T05:55:57.795Z,70.73
2022-11-15T05:58:24.488Z,67.97
2022-11-15T06:00:51.220Z,63.73
2022-11-15T06:03:17.905Z,63.60
2022-11-15T06:05:44.714Z,70.97
2022-11-15T06:08:11.482Z,72.73
2022-11-15T06:10:38.214Z,64.60
2022-11-15T06:13:06.052Z,67.60
2022-11-15T06:15:35.846Z,69.37
2022-11-15T06:18:02.979Z,63.63
2022-11-15T06:20:30.597Z,69.20
2022-11-15T06:23:02.136Z,71.90
2022-11-15T06:25:30.285Z,65.07
2022-11-15T06:27:59.391Z,69.63
2022-11-15T06:30:27.014Z,73.70
2022-11-15T06:33:03.391Z,71.90
2022-11-15T06:35:30.555Z,74.83
2022-11-15T06:38:02.679Z,67.57
2022-11-15T06:40:29.416Z,68.77
2022-11-15T06:43:00.452Z,72.33
2022-11-15T06:45:27.434Z,75.60
2022-11-15T06:47:54.336Z,76.97
2022-11-15T06:50:21.109Z,72.90
2022-11-15T06:52:47.981Z,69.30
2022-11-15T06:55:14.844Z,70.03
2022-11-15T06:57:49.407Z,70.13
2022-11-15T07:00:17.308Z,66.37
2022-11-15T07:02:44.088Z,65.17
2022-11-15T07:05:11.822Z,67.97
2022-11-15T07:07:40.030Z,65.77
2022-11-15T07:10:07.618Z,71.63
2022-11-15T07:12:34.689Z,78.40
2022-11-15T07:15:04.262Z,72.23
2022-11-15T07:17:32.798Z,70.17
2022-11-15T07:19:59.545Z,70.03
2022-11-15T07:22:26.278Z,73.87
2022-11-15T07:24:52.972Z,71.13
2022-11-15T07:27:19.870Z,66.47
2022-11-15T07:29:46.702Z,71.00
2022-11-15T07:32:13.409Z,61.10
2022-11-15T07:34:40.125Z,66.57
2022-11-15T07:37:06.799Z,66.60
2022-11-15T07:39:33.746Z,69.70
2022-11-15T07:42:19.545Z,62.47
2022-11-15T07:44:46.254Z,67.67
2022-11-15T07:47:12.995Z,66.10
2022-11-15T07:49:39.695Z,64.67
2022-11-15T07:52:06.493Z,63.03
2022-11-15T07:54:33.183Z,65.53
2022-11-15T07:57:04.046Z,75.87
2022-11-15T07:59:32.994Z,68.30
2022-11-15T08:01:59.973Z,65.07
2022-11-15T08:04:26.778Z,70.50
2022-11-15T08:06:53.569Z,69.20
2022-11-15T08:09:20.392Z,69.47
2022-11-15T08:11:47.151Z,69.27
2022-11-15T08:14:13.888Z,60.13
2022-11-15T08:16:40.585Z,69.27
2022-11-15T08:19:07.409Z,66.07
2022-11-15T08:21:34.066Z,69.00
2022-11-15T08:24:00.872Z,62.87
2022-11-15T08:26:30.119Z,62.23
2022-11-15T08:28:56.889Z,66.80
2022-11-15T08:31:23.715Z,60.27
2022-11-15T08:33:50.500Z,58.23
2022-11-15T08:36:18.081Z,67.00
2022-11-15T08:38:44.894Z,61.00
2022-11-15T08:41:17.810Z,62.43
2022-11-15T08:43:44.484Z,58.67
2022-11-15T08:46:14.921Z,61.40
2022-11-15T08:48:41.717Z,55.57
2022-11-15T08:51:08.684Z,55.73
2022-11-15T08:53:35.860Z,49.93
2022-11-15T08:56:02.866Z,50.57
2022-11-15T08:58:29.946Z,49.60
2022-11-15T09:00:57.018Z,47.83
2022-11-15T09:03:23.996Z,43.10
2022-11-15T09:05:55.953Z,43.43
2022-11-15T09:08:51.874Z,43.77
2022-11-15T09:11:11.753Z,36.37
2022-11-15T09:13:38.490Z,41.43
2022-11-15T09:16:05.715Z,37.47
2022-11-15T09:18:32.822Z,39.70
2022-11-15T09:21:00.501Z,42.17
2022-11-15T09:23:27.775Z,38.60
2022-11-15T09:26:03.675Z,34.53
2022-11-15T09:28:31.441Z,37.03
2022-11-15T09:31:02.907Z,34.70
2022-11-15T09:33:30.421Z,30.27
2022-11-15T09:36:08.855Z,32.70
2022-11-15T09:38:36.009Z,32.03
2022-11-15T09:41:26.904Z,32.37
2022-11-15T09:44:09.010Z,28.37
2022-11-15T09:47:01.377Z,30.67
2022-11-15T09:49:30.746Z,30.87
2022-11-15T09:51:58.709Z,31.37
2022-11-15T09:57:33.636Z,27.87
2022-11-15T10:00:45.779Z,26.60
2022-11-15T10:03:24.581Z,22.37
2022-11-15T10:05:55.474Z,26.47
2022-11-15T10:08:51.216Z,23.83
2022-11-15T10:11:41.984Z,20.63
2022-11-15T10:14:16.354Z,20.17
2022-11-15T10:16:46.102Z,19.87
2022-11-15T10:19:27.129Z,21.00
2022-11-15T10:22:15.800Z,19.73
2022-11-15T10:24:44.667Z,17.53
2022-11-15T10:27:14.614Z,17.67
2022-11-15T10:29:51.686Z,18.43
2022-11-15T10:32:20.912Z,18.73
2022-11-15T10:34:49.460Z,19.33
2022-11-15T10:37:29.334Z,17.43
2022-11-15T10:40:07.732Z,15.33
2022-11-15T10:42:34.502Z,17.80
2022-11-15T10:45:01.365Z,14.83
2022-11-15T10:47:37.801Z,11.33
2022-11-15T10:50:27.967Z,14.63
2022-11-15T10:52:55.252Z,13.67
2022-11-15T10:55:27.733Z,12.73
2022-11-15T10:58:01.295Z,18.23
2022-11-15T11:00:40.292Z,12.97
2022-11-15T11:03:28.430Z,13.67
2022-11-15T11:06:17.767Z,11.90
2022-11-15T11:09:02.406Z,11.73
2022-11-15T11:11:58.594Z,11.27
2022-11-15T11:14:34.547Z,9.73
2022-11-15T11:17:13.079Z,11.37
2022-11-15T11:20:13.809Z,8.70
2022-11-15T11:22:52.021Z,9.80
2022-11-15T11:25:43.950Z,8.87
2022-11-15T11:28:26.883Z,7.90
2022-11-15T11:30:56.583Z,7.87
2022-11-15T11:33:29.472Z,5.57
2022-11-15T11:36:12.826Z,6.70
2022-11-15T11:38:59.074Z,8.90
2022-11-15T11:41:39.935Z,10.20
2022-11-15T11:44:27.085Z,11.07
2022-11-15T11:47:15.896Z,5.83
2022-11-15T11:49:54.864Z,6.60
2022-11-15T11:52:53.807Z,6.07
2022-11-15T11:55:30.795Z,6.23
2022-11-15T11:58:22.033Z,7.57
2022-11-15T12:01:12.917Z,9.50
2022-11-15T12:04:12.961Z,5.43
2022-11-15T12:06:44.004Z,5.40
2022-11-15T12:09:50.665Z,6.50
2022-11-15T12:12:20.166Z,5.27
2022-11-15T12:14:56.209Z,4.70
2022-11-15T12:17:32.885Z,4.23
2022-11-15T12:20:23.825Z,7.53
2022-11-15T12:22:59.271Z,5.10
2022-11-15T12:25:50.674Z,2.83
2022-11-15T12:29:06.811Z,3.23
2022-11-15T12:31:50.119Z,3.30
2022-11-15T12:34:23.186Z,6.47
2022-11-15T12:36:51.527Z,5.47
2022-11-15T12:39:19.850Z,4.53
2022-11-15T12:41:55.923Z,3.70
2022-11-15T12:44:31.906Z,5.23
2022-11-15T12:46:58.756Z,7.50
2022-11-15T12:49:28.485Z,5.37
2022-11-15T12:51:58.345Z,5.03
2022-11-15T12:54:25.165Z,3.40
2022-11-15T12:57:04.325Z,2.63
2022-11-15T12:59:50.055Z,6.07
2022-11-15T13:02:44.601Z,5.57
2022-11-15T13:05:35.334Z,2.80
2022-11-15T13:08:04.912Z,6.90
2022-11-15T13:10:38.536Z,3.57
2022-11-15T13:13:09.370Z,5.27
2022-11-15T13:15:42.250Z,4.50
2022-11-15T13:18:25.184Z,6.90
2022-11-15T13:20:52.230Z,2.87
2022-11-15T13:23:19.106Z,2.43
2022-11-15T13:26:04.841Z,1.60
2022-11-15T13:28:37.674Z,3.50
2022-11-15T13:31:42.926Z,3.67
2022-11-15T13:34:51.643Z,3.47
2022-11-15T13:37:22.540Z,3.57
2022-11-15T13:39:50.541Z,3.33
2022-11-15T13:42:19.448Z,4.10
2022-11-15T13:44:58.364Z,4.10
2022-11-15T13:47:28.772Z,4.17
2022-11-15T13:49:59.232Z,4.20
2022-11-15T13:52:36.725Z,3.23
2022-11-15T13:55:18.501Z,4.20
2022-11-15T13:57:54.473Z,3.10
2022-11-15T14:00:28.827Z,2.17
2022-11-15T14:02:57.455Z,2.07
2022-11-15T14:05:25.755Z,3.17
2022-11-15T14:08:01.956Z,3.93
2022-11-15T14:10:38.870Z,4.03
2022-11-15T14:13:27.839Z,3.17
2022-11-15T14:15:54.958Z,5.07
2022-11-15T14:18:58.998Z,2.57
2022-11-15T14:21:30.641Z,1.60
2022-11-15T14:24:17.536Z,3.00
2022-11-15T14:26:44.743Z,3.73
2022-11-15T14:29:28.255Z,2.70
2022-11-15T14:32:06.761Z,4.17
2022-11-15T14:34:33.983Z,5.00
2022-11-15T14:37:00.779Z,3.27
2022-11-15T14:39:27.551Z,3.30
2022-11-15T14:41:54.481Z,4.27
2022-11-15T14:44:22.774Z,3.53
2022-11-15T14:46:49.672Z,5.57
2022-11-15T14:49:17.375Z,4.37
2022-11-15T14:51:46.434Z,3.10
2022-11-15T14:54:19.621Z,6.47
2022-11-15T14:56:46.610Z,5.37
2022-11-15T14:59:13.447Z,4.60
2022-11-15T15:01:40.558Z,5.63
2022-11-15T15:04:07.399Z,3.83
2022-11-15T15:06:34.227Z,5.30
2022-11-15T15:09:01.510Z,5.07
2022-11-15T15:11:31.104Z,5.00
2022-11-15T15:14:02.327Z,3.57
2022-11-15T15:16:29.151Z,4.40
2022-11-15T15:18:58.940Z,4.03
2022-11-15T15:21:33.618Z,4.53
2022-11-15T15:24:04.020Z,4.03
2022-11-15T15:26:33.271Z,5.23
2022-11-15T15:29:00.165Z,7.23
2022-11-15T15:31:27.349Z,5.30
2022-11-15T15:33:54.249Z,3.10
2022-11-15T15:36:21.075Z,6.10
2022-11-15T15:38:47.989Z,4.80
2022-11-15T15:41:16.560Z,4.20
2022-11-15T15:43:43.716Z,5.00
2022-11-15T15:46:16.569Z,3.87
2022-11-15T15:48:46.226Z,3.93
2022-11-15T15:51:19.623Z,5.27
2022-11-15T15:53:47.476Z,5.70
2022-11-15T15:56:14.444Z,5.80
2022-11-15T15:58:41.130Z,5.07
2022-11-15T16:01:07.995Z,4.33
2022-11-15T16:03:34.779Z,5.00
2022-11-15T16:06:02.131Z,4.80
2022-11-15T16:08:42.575Z,7.30
2022-11-15T16:11:17.518Z,15.20
2022-11-15T16:13:44.394Z,8.00
2022-11-15T16:16:14.431Z,4.67
2022-11-15T16:18:41.249Z,12.87
2022-11-15T16:21:09.587Z,5.87
2022-11-15T16:23:36.456Z,5.47
2022-11-15T16:26:05.876Z,4.90
2022-11-15T16:28:34.409Z,8.83
2022-11-15T16:31:12.779Z,6.07
2022-11-15T16:33:40.576Z,6.67
2022-11-15T16:36:28.425Z,4.63
2022-11-15T16:38:57.133Z,3.60
2022-11-15T16:41:24.001Z,3.37
2022-11-15T16:43:50.991Z,5.77
2022-11-15T16:46:23.097Z,3.47
2022-11-15T16:48:50.652Z,2.73
2022-11-15T16:51:17.955Z,4.37
2022-11-15T16:53:45.136Z,2.90
2022-11-15T16:56:23.865Z,5.87
2022-11-15T16:58:50.746Z,3.97
2022-11-15T17:01:33.870Z,3.23
2022-11-15T17:04:12.683Z,5.77
2022-11-15T17:06:44.354Z,5.33
2022-11-15T17:09:16.795Z,3.73
2022-11-15T17:11:44.013Z,6.33
2022-11-15T17:14:11.912Z,6.97
2022-11-15T17:16:42.414Z,6.00
2022-11-15T17:19:16.634Z,7.13
2022-11-15T17:21:44.355Z,4.40
2022-11-15T17:24:11.439Z,3.00
2022-11-15T17:26:40.711Z,4.43
2022-11-15T17:29:08.256Z,6.57
2022-11-15T17:31:36.610Z,2.97
2022-11-15T17:34:05.135Z,4.47
2022-11-15T17:36:32.440Z,7.20
2022-11-15T17:39:00.092Z,3.60
2022-11-15T17:41:28.028Z,4.23
2022-11-15T17:44:00.242Z,5.37
2022-11-15T17:46:28.446Z,5.97
2022-11-15T17:48:56.507Z,3.07
2022-11-15T17:51:24.162Z,6.53
2022-11-15T17:53:51.641Z,3.83
2022-11-15T17:56:21.005Z,5.63
2022-11-15T17:58:56.527Z,3.87
2022-11-15T18:01:28.792Z,4.70
2022-11-15T18:03:56.893Z,7.10
2022-11-15T18:06:24.966Z,4.73
2022-11-15T18:08:53.648Z,5.17
2022-11-15T18:11:23.679Z,4.67
2022-11-15T18:13:54.341Z,4.73
2022-11-15T18:16:25.411Z,7.77
2022-11-15T18:18:53.177Z,6.33
2022-11-15T18:21:22.777Z,5.17
2022-11-15T18:23:54.686Z,5.00
2022-11-15T18:26:27.088Z,6.13
2022-11-15T18:28:56.155Z,8.70
2022-11-15T18:31:28.506Z,4.83
2022-11-15T18:33:56.017Z,4.97
2022-11-15T18:36:28.514Z,7.40
2022-11-15T18:39:00.620Z,5.40
2022-11-15T18:41:30.876Z,6.10
2022-11-15T18:44:00.831Z,7.97
2022-11-15T18:46:30.946Z,5.97
2022-11-15T18:48:59.518Z,6.13
2022-11-15T18:51:30.275Z,5.47
2022-11-15T18:54:00.408Z,6.80
2022-11-15T18:56:28.899Z,11.37
2022-11-15T18:58:57.919Z,6.67
2022-11-15T19:01:30.756Z,9.17
2022-11-15T19:03:58.633Z,8.67
2022-11-15T19:06:27.565Z,9.77
2022-11-15T19:08:56.460Z,8.67
2022-11-15T19:11:28.986Z,9.73
2022-11-15T19:13:56.689Z,10.47
2022-11-15T19:16:24.527Z,8.90
2022-11-15T19:18:55.538Z,7.67
2022-11-15T19:21:25.100Z,8.90
2022-11-15T19:23:55.557Z,8.87
2022-11-15T19:26:23.695Z,9.53
2022-11-15T19:28:59.686Z,10.57
2022-11-15T19:31:31.582Z,7.60
2022-11-15T19:34:06.535Z,9.47
2022-11-15T19:36:43.836Z,10.67
2022-11-15T19:39:13.520Z,10.43
2022-11-15T19:41:42.524Z,8.57
2022-11-15T19:44:11.198Z,7.73
2022-11-15T19:46:38.969Z,11.33
2022-11-15T19:49:08.020Z,9.93
2022-11-15T19:51:34.957Z,13.93
2022-11-15T19:54:06.536Z,12.23
2022-11-15T19:56:34.775Z,9.73
2022-11-15T19:59:02.343Z,10.70
2022-11-15T20:01:31.391Z,12.17
2022-11-15T20:03:59.612Z,11.20
2022-11-15T20:06:32.268Z,14.00
2022-11-15T20:08:59.535Z,14.23
2022-11-15T20:11:27.142Z,11.03
2022-11-15T20:14:02.420Z,11.63
2022-11-15T20:16:29.729Z,9.63
2022-11-15T20:18:56.639Z,11.77
2022-11-15T20:21:23.814Z,10.33
2022-11-15T20:23:51.756Z,11.03
2022-11-15T20:26:19.870Z,9.33
2022-11-15T20:28:48.157Z,11.27
2022-11-15T20:31:16.400Z,13.90
2022-11-15T20:33:43.192Z,12.00
2022-11-15T20:36:12.251Z,11.97
2022-11-15T20:38:39.349Z,9.90
2022-11-15T20:41:06.648Z,10.60
2022-11-15T20:43:33.376Z,9.47
2022-11-15T20:46:00.248Z,13.43
2022-11-15T20:48:27.312Z,12.60
2022-11-15T20:51:07.559Z,15.40
2022-11-15T20:53:34.463Z,12.90
2022-11-15T20:56:11.593Z,11.53
2022-11-15T20:58:38.758Z,12.83
2022-11-15T21:01:07.008Z,12.63
2022-11-15T21:03:34.174Z,13.80
2022-11-15T21:06:01.412Z,13.67
2022-11-15T21:08:28.241Z,15.27
2022-11-15T21:11:13.966Z,15.57
2022-11-15T21:13:40.707Z,14.13
2022-11-15T21:16:08.123Z,15.40
2022-11-15T21:18:35.169Z,13.60
2022-11-15T21:21:04.515Z,16.53
2022-11-15T21:23:31.687Z,17.80
2022-11-15T21:25:58.666Z,15.83
2022-11-15T21:28:25.661Z,17.70
2022-11-15T21:30:54.265Z,19.70
2022-11-15T21:33:21.592Z,15.93
2022-11-15T21:35:48.390Z,16.70
2022-11-15T21:38:15.610Z,17.43
2022-11-15T21:40:42.338Z,17.83
2022-11-15T21:43:09.100Z,18.87
2022-11-15T21:45:35.871Z,17.67
2022-11-15T21:48:02.657Z,21.47
2022-11-15T21:50:29.550Z,19.00
2022-11-15T21:52:56.313Z,18.27
2022-11-15T21:55:23.092Z,22.57
2022-11-15T21:57:49.829Z,23.50
2022-11-15T22:00:35.993Z,21.10
2022-11-15T22:03:02.815Z,22.93
2022-11-15T22:05:29.616Z,24.37
2022-11-15T22:07:56.322Z,23.97
2022-11-15T22:10:23.041Z,25.30
2022-11-15T22:12:49.734Z,25.40
2022-11-15T22:15:16.704Z,27.40
2022-11-15T22:17:58.378Z,26.43
2022-11-15T22:23:12.317Z,27.33
2022-11-15T22:25:39.068Z,27.10
2022-11-15T22:28:05.810Z,28.77
2022-11-15T22:30:32.578Z,31.20
2022-11-15T22:32:59.355Z,29.53
2022-11-15T22:35:26.058Z,30.77
2022-11-15T22:37:52.900Z,33.50
2022-11-15T22:40:19.737Z,35.70
2022-11-15T22:42:46.504Z,33.97
2022-11-15T22:45:13.261Z,32.43
2022-11-15T22:47:39.909Z,35.93
2022-11-15T22:50:07.131Z,36.20
2022-11-15T22:52:33.825Z,37.77
2022-11-15T22:55:00.512Z,39.60
2022-11-15T22:57:27.326Z,34.63
2022-11-15T22:59:54.114Z,37.70
2022-11-15T23:02:20.906Z,37.17
2022-11-15T23:04:47.650Z,38.17
2022-11-15T23:07:14.421Z,37.90
2022-11-15T23:09:41.259Z,36.17
2022-11-15T23:12:28.769Z,40.50
2022-11-15T23:14:55.491Z,38.80
2022-11-15T23:17:22.275Z,42.37
2022-11-15T23:19:49.013Z,41.43
2022-11-15T23:25:19.015Z,42.90
2022-11-15T23:27:45.681Z,40.83
2022-11-15T23:30:31.297Z,43.67
2022-11-15T23:33:16.788Z,40.83
2022-11-15T23:35:53.008Z,38.70
2022-11-15T23:38:19.685Z,43.17
2022-11-15T23:40:54.955Z,38.63
2022-11-15T23:43:22.294Z,43.97
2022-11-15T23:45:49.074Z,40.00
2022-11-15T23:48:15.808Z,39.77
2022-11-15T23:50:42.548Z,46.33
2022-11-15T23:53:09.261Z,40.17
2022-11-15T23:55:35.943Z,44.90
2022-11-15T23:58:02.619Z,42.17
